Time;durP1;ratioP1;P1;durP2;ratioP2;P2;SDS_P1;SDS_P2;PMS_P1;PMS_P2;Temp;Humidity;BMP_temperature;BMP_pressure;BME280_temperature;BME280_humidity;BME280_pressure;Samples;Min_cycle;Max_cycle;Signal;HPM_P1;HPM_P2
2022/01/17 00:01:26;;;;;;;15.03;3.83;;;5.50;99.90;;;;;;4825402;29;19971;-82
2022/01/17 00:03:52;;;;;;;15.43;2.80;;;5.50;99.90;;;;;;4826461;29;20486;-82
2022/01/17 00:06:18;;;;;;;15.97;3.20;;;5.50;99.90;;;;;;4842473;29;20046;-82
2022/01/17 00:08:45;;;;;;;13.30;2.83;;;5.50;99.90;;;;;;4826071;29;20076;-82
2022/01/17 00:11:12;;;;;;;15.37;3.10;;;5.50;99.90;;;;;;4843021;29;20453;-82
2022/01/17 00:13:39;;;;;;;14.57;2.97;;;5.50;99.90;;;;;;4841676;29;20061;-82
2022/01/17 00:16:17;;;;;;;16.73;2.83;;;5.50;99.90;;;;;;4825560;29;20057;-82
2022/01/17 00:21:13;;;;;;;16.53;3.43;;;5.50;99.90;;;;;;4826332;29;20061;-82
2022/01/17 00:23:39;;;;;;;15.80;2.70;;;5.40;99.90;;;;;;4825496;29;20058;-82
2022/01/17 00:26:05;;;;;;;15.33;3.73;;;5.40;99.90;;;;;;4826547;29;20145;-82
2022/01/17 00:28:32;;;;;;;17.73;2.73;;;5.40;99.90;;;;;;4825917;29;20144;-82
2022/01/17 00:31:00;;;;;;;13.77;2.97;;;5.40;99.90;;;;;;4826362;29;20102;-85
2022/01/17 00:33:26;;;;;;;15.03;2.57;;;5.40;99.90;;;;;;4807639;29;20069;-85
2022/01/17 00:35:52;;;;;;;11.60;2.23;;;5.30;99.90;;;;;;4807297;29;20054;-84
2022/01/17 00:38:17;;;;;;;13.90;2.93;;;5.30;99.90;;;;;;4807357;29;20464;-84
2022/01/17 00:40:43;;;;;;;12.53;2.90;;;5.30;99.90;;;;;;4807857;29;20064;-84
2022/01/17 00:43:10;;;;;;;14.37;2.20;;;5.30;99.90;;;;;;4806720;29;20054;-84
2022/01/17 00:45:38;;;;;;;11.10;2.33;;;5.30;99.90;;;;;;4807337;29;20042;-84
2022/01/17 00:48:05;;;;;;;12.63;2.53;;;5.30;99.90;;;;;;4807614;29;20054;-85
2022/01/17 00:50:31;;;;;;;11.90;2.40;;;5.30;99.90;;;;;;4806583;29;20048;-82
2022/01/17 00:53:03;;;;;;;12.57;2.60;;;5.30;99.90;;;;;;4807385;29;20077;-82
2022/01/17 00:55:29;;;;;;;12.53;2.27;;;5.40;99.90;;;;;;4807301;29;20057;-82
2022/01/17 00:57:55;;;;;;;16.00;2.20;;;5.30;99.90;;;;;;4806697;29;20060;-82
2022/01/17 01:00:21;;;;;;;10.60;2.97;;;5.30;99.90;;;;;;4807122;29;20145;-82
2022/01/17 01:02:47;;;;;;;14.37;2.30;;;5.20;99.90;;;;;;4807352;29;20046;-82
2022/01/17 01:05:13;;;;;;;17.03;3.30;;;5.20;99.90;;;;;;4806614;29;20053;-84
2022/01/17 01:07:39;;;;;;;16.50;3.50;;;5.20;99.90;;;;;;4807386;29;20058;-84
2022/01/17 01:10:14;;;;;;;16.90;2.50;;;5.20;99.90;;;;;;4807781;29;20050;-85
2022/01/17 01:12:43;;;;;;;16.83;3.87;;;5.20;99.90;;;;;;4806591;29;20050;-84
2022/01/17 01:15:19;;;;;;;19.30;3.17;;;5.20;99.90;;;;;;4807055;29;20099;-84
2022/01/17 01:17:52;;;;;;;15.30;3.10;;;5.20;99.90;;;;;;4806950;29;20058;-85
2022/01/17 01:28:19;;;;;;;14.10;2.50;;;5.20;99.90;;;;;;4822184;29;20050;-85
2022/01/17 01:30:49;;;;;;;11.33;2.20;;;5.20;99.90;;;;;;4807380;29;20046;-85
2022/01/17 01:33:25;;;;;;;16.13;2.40;;;5.20;99.90;;;;;;4789637;29;20058;-84
2022/01/17 01:35:58;;;;;;;14.47;2.57;;;5.20;99.90;;;;;;4788838;29;20465;-84
2022/01/17 01:38:23;;;;;;;16.93;2.57;;;5.20;99.90;;;;;;4805102;29;20057;-84
2022/01/17 01:40:49;;;;;;;17.33;2.40;;;5.20;99.90;;;;;;4788377;29;20046;-85
2022/01/17 01:43:14;;;;;;;15.23;2.57;;;5.10;99.90;;;;;;4804601;29;20059;-84
2022/01/17 01:45:40;;;;;;;12.17;2.10;;;5.10;99.90;;;;;;4805209;29;20054;-84
2022/01/17 01:48:08;;;;;;;17.07;2.43;;;6.50;99.90;;;;;;4804411;29;20103;-84
2022/01/17 01:50:34;;;;;;;15.03;2.90;;;5.10;99.90;;;;;;4788735;29;20484;-84
2022/01/17 01:52:59;;;;;;;12.27;2.60;;;5.10;99.90;;;;;;4788729;29;20083;-84
2022/01/17 01:55:25;;;;;;;14.57;3.80;;;5.00;99.90;;;;;;4804807;29;20055;-84
2022/01/17 01:57:51;;;;;;;13.13;2.43;;;5.00;99.90;;;;;;4805010;29;20156;-84
2022/01/17 02:00:18;;;;;;;13.77;2.77;;;5.00;99.90;;;;;;4788166;29;20841;-84
2022/01/17 02:02:43;;;;;;;14.07;2.40;;;5.00;99.90;;;;;;4805045;29;20130;-84
2022/01/17 02:05:09;;;;;;;14.97;2.77;;;5.00;99.90;;;;;;4789520;29;20055;-85
2022/01/17 02:07:36;;;;;;;17.00;2.53;;;5.00;99.90;;;;;;4806424;29;20530;-84
2022/01/17 02:10:03;;;;;;;16.07;2.70;;;5.00;99.90;;;;;;4792109;29;20043;-84
2022/01/17 02:12:29;;;;;;;16.53;2.60;;;6.10;99.90;;;;;;4808146;29;20082;-84
2022/01/17 02:14:56;;;;;;;15.27;2.50;;;4.90;99.90;;;;;;4791669;29;20131;-84
2022/01/17 02:17:23;;;;;;;13.33;2.57;;;5.00;99.90;;;;;;4806901;29;20065;-84
2022/01/17 02:19:56;;;;;;;14.23;2.40;;;4.90;99.90;;;;;;4808419;29;20399;-84
2022/01/17 02:22:22;;;;;;;16.85;2.83;;;4.90;99.90;;;;;;4796936;29;20095;-84
2022/01/17 02:24:48;;;;;;;11.73;2.67;;;5.00;99.90;;;;;;4808318;29;20058;-84
2022/01/17 02:27:13;;;;;;;13.53;2.23;;;5.00;99.90;;;;;;4807816;29;20051;-84
2022/01/17 02:29:39;;;;;;;12.90;2.53;;;4.90;99.90;;;;;;4807372;29;20408;-85
2022/01/17 02:32:05;;;;;;;13.07;2.37;;;4.90;99.90;;;;;;4808114;29;20123;-84
2022/01/17 02:34:30;;;;;;;15.00;2.63;;;4.90;99.90;;;;;;4806692;29;20116;-85
2022/01/17 02:36:56;;;;;;;13.93;2.93;;;4.90;99.90;;;;;;4791520;29;20047;-85
2022/01/17 02:39:22;;;;;;;16.87;2.73;;;4.90;99.90;;;;;;4791771;29;20116;-84
2022/01/17 02:41:49;;;;;;;14.77;2.97;;;4.80;99.90;;;;;;4808039;29;20050;-84
2022/01/17 02:44:16;;;;;;;15.93;2.50;;;4.80;99.90;;;;;;4790486;29;20057;-84
2022/01/17 02:46:42;;;;;;;17.27;2.40;;;4.80;99.90;;;;;;4807755;29;20105;-85
2022/01/17 02:49:08;;;;;;;14.83;2.60;;;4.80;99.90;;;;;;4791759;29;20492;-84
2022/01/17 02:51:34;;;;;;;13.97;2.77;;;4.70;99.90;;;;;;4806944;29;20055;-84
2022/01/17 02:54:01;;;;;;;18.37;2.60;;;4.70;99.90;;;;;;4791468;29;20062;-84
2022/01/17 02:56:26;;;;;;;13.70;2.57;;;4.70;99.90;;;;;;4790803;29;20043;-84
2022/01/17 02:58:52;;;;;;;20.07;2.53;;;4.60;99.90;;;;;;4791367;29;20534;-84
2022/01/17 03:01:21;;;;;;;13.30;2.87;;;4.60;99.90;;;;;;4790926;29;20043;-84
2022/01/17 03:03:47;;;;;;;15.53;2.40;;;4.60;99.90;;;;;;4790604;29;20563;-85
2022/01/17 03:06:13;;;;;;;19.20;2.77;;;4.50;99.90;;;;;;4790870;29;20046;-84
2022/01/17 03:08:41;;;;;;;14.13;2.87;;;4.50;99.90;;;;;;4790802;29;20058;-84
2022/01/17 03:11:11;;;;;;;14.83;2.73;;;4.50;99.90;;;;;;4805581;29;20059;-85
2022/01/17 03:13:39;;;;;;;17.10;3.20;;;4.50;99.90;;;;;;4790785;29;20500;-85
2022/01/17 03:16:13;;;;;;;15.43;2.57;;;4.50;99.90;;;;;;4805986;29;20047;-85
2022/01/17 03:18:39;;;;;;;;;;;4.50;99.90;;;;;;4791121;29;20054;-85
2022/01/17 03:21:07;;;;;;;13.87;2.73;;;4.40;99.90;;;;;;4791421;29;20369;-85
2022/01/17 03:23:34;;;;;;;16.67;2.70;;;4.40;99.90;;;;;;4790584;29;20054;-85
2022/01/17 03:26:00;;;;;;;17.73;2.57;;;4.40;99.90;;;;;;4790588;29;20055;-85
2022/01/17 03:28:26;;;;;;;14.97;2.70;;;4.40;99.90;;;;;;4790451;29;20129;-84
2022/01/17 03:30:52;;;;;;;16.10;2.20;;;4.40;99.90;;;;;;4805996;29;20134;-84
2022/01/17 03:33:19;;;;;;;14.77;2.67;;;4.40;99.90;;;;;;4789411;29;20496;-84
2022/01/17 03:35:45;;;;;;;14.23;3.17;;;4.40;99.90;;;;;;4790594;29;20047;-85
2022/01/17 03:38:15;;;;;;;17.07;2.97;;;4.40;99.90;;;;;;4790645;29;20141;-84
2022/01/17 03:40:41;;;;;;;13.93;2.93;;;4.40;99.90;;;;;;4790685;29;20133;-85
2022/01/17 03:43:08;;;;;;;17.63;2.67;;;4.40;99.90;;;;;;4790342;29;20047;-85
2022/01/17 03:45:33;;;;;;;13.73;2.70;;;4.40;99.90;;;;;;4789698;29;20042;-85
2022/01/17 03:47:59;;;;;;;14.80;2.93;;;4.40;99.90;;;;;;4791228;29;20544;-85
2022/01/17 03:50:26;;;;;;;13.10;2.47;;;4.50;99.90;;;;;;4790201;29;20095;-85
2022/01/17 03:52:52;;;;;;;16.67;3.07;;;4.50;99.90;;;;;;4789829;29;20111;-85
2022/01/17 03:55:19;;;;;;;14.47;2.40;;;4.50;99.90;;;;;;4790467;29;20043;-84
2022/01/17 03:57:45;;;;;;;12.07;2.30;;;4.50;99.90;;;;;;4790143;29;20057;-85
2022/01/17 04:00:15;;;;;;;14.30;2.90;;;4.60;99.90;;;;;;4789596;29;20047;-85
2022/01/17 04:02:40;;;;;;;15.40;2.70;;;4.60;99.90;;;;;;4805599;29;20500;-85
2022/01/17 04:05:07;;;;;;;16.77;2.33;;;4.60;99.90;;;;;;4790560;29;20054;-85
2022/01/17 04:07:33;;;;;;;12.60;2.40;;;4.60;99.90;;;;;;4805446;29;20061;-85
2022/01/17 04:09:58;;;;;;;12.13;2.50;;;4.60;99.90;;;;;;4805599;29;20050;-85
2022/01/17 04:12:24;;;;;;;13.83;2.80;;;4.60;99.90;;;;;;4789864;29;20419;-85
2022/01/17 04:14:54;;;;;;;14.40;2.33;;;4.60;99.90;;;;;;4805587;29;20134;-85
2022/01/17 04:17:20;;;;;;;13.43;2.77;;;4.70;99.90;;;;;;4805143;29;20047;-85
2022/01/17 04:19:49;;;;;;;14.67;2.23;;;4.60;99.90;;;;;;4806282;29;20058;-85
2022/01/17 04:22:14;;;;;;;14.17;2.93;;;4.70;99.90;;;;;;4805281;29;20492;-85
2022/01/17 04:24:40;;;;;;;11.53;2.27;;;4.70;99.90;;;;;;4806314;29;20057;-85
2022/01/17 04:27:06;;;;;;;17.07;2.53;;;4.80;99.90;;;;;;4806353;29;20043;-85
2022/01/17 04:29:31;;;;;;;11.77;2.33;;;4.70;99.90;;;;;;4804750;29;20107;-85
2022/01/17 04:31:57;;;;;;;14.07;2.60;;;4.70;99.90;;;;;;4804827;29;20051;-85
2022/01/17 04:34:23;;;;;;;10.73;2.27;;;4.70;99.90;;;;;;4789621;29;20066;-85
2022/01/17 04:36:48;;;;;;;13.83;2.47;;;4.80;99.90;;;;;;4805410;29;20054;-85
2022/01/17 04:39:16;;;;;;;16.07;2.50;;;4.80;99.90;;;;;;4805467;29;20455;-85
2022/01/17 04:41:42;;;;;;;17.33;2.23;;;4.80;99.90;;;;;;4805107;29;20095;-84
2022/01/17 04:46:52;;;;;;;15.88;2.80;;;4.70;99.90;;;;;;4806015;29;20058;-85
2022/01/17 04:49:18;;;;;;;13.80;2.40;;;4.60;99.90;;;;;;4788560;29;20134;-85
2022/01/17 04:51:45;;;;;;;16.03;3.10;;;4.50;99.90;;;;;;4789839;29;20059;-85
2022/01/17 04:56:55;;;;;;;14.63;2.37;;;3.70;99.90;;;;;;4805360;29;20134;-84
2022/01/17 04:59:21;;;;;;;13.47;2.63;;;4.50;99.90;;;;;;4805036;29;20142;-85
2022/01/17 05:01:46;;;;;;;14.97;2.63;;;4.50;99.90;;;;;;4803281;29;20054;-84
2022/01/17 05:04:12;;;;;;;13.93;2.67;;;4.50;99.90;;;;;;4790726;29;20051;-84
2022/01/17 05:06:37;;;;;;;14.07;2.40;;;4.50;99.90;;;;;;4804878;29;20047;-85
2022/01/17 05:09:04;;;;;;;15.80;2.80;;;4.50;99.90;;;;;;4805610;29;20039;-85
2022/01/17 05:11:31;;;;;;;11.93;2.27;;;4.50;99.90;;;;;;4804841;29;20450;-85
2022/01/17 05:13:57;;;;;;;13.63;2.47;;;4.60;99.90;;;;;;4788928;29;20104;-84
2022/01/17 05:16:31;;;;;;;15.13;2.30;;;4.60;99.90;;;;;;4789031;29;20086;-85
2022/01/17 05:21:41;;;;;;;14.37;2.57;;;4.70;99.90;;;;;;4804210;29;20059;-85
2022/01/17 05:24:07;;;;;;;12.20;2.30;;;4.70;99.90;;;;;;4788572;29;20047;-85
2022/01/17 05:26:32;;;;;;;15.70;2.50;;;4.70;99.90;;;;;;4805057;29;20455;-85
2022/01/17 05:28:58;;;;;;;18.10;2.60;;;4.80;99.90;;;;;;4805242;29;20046;-84
2022/01/17 05:31:23;;;;;;;13.30;2.43;;;4.80;99.90;;;;;;4787872;29;20051;-82
2022/01/17 05:33:49;;;;;;;14.33;2.50;;;4.70;99.90;;;;;;4805336;29;20051;-82
2022/01/17 05:36:15;;;;;;;15.17;2.43;;;4.80;99.90;;;;;;4805058;29;20039;-83
2022/01/17 05:38:40;;;;;;;18.03;3.10;;;4.80;99.90;;;;;;4804797;29;20050;-83
2022/01/17 05:41:06;;;;;;;18.73;3.13;;;4.80;99.90;;;;;;4806961;29;20507;-82
2022/01/17 05:43:34;;;;;;;15.13;2.57;;;4.80;99.90;;;;;;4808395;29;20055;-82
2022/01/17 05:46:00;;;;;;;15.67;3.20;;;4.90;99.90;;;;;;4807014;29;20518;-82
2022/01/17 05:48:25;;;;;;;16.03;2.83;;;4.80;99.90;;;;;;4808605;29;20086;-85
2022/01/17 05:50:51;;;;;;;15.83;2.60;;;4.90;99.90;;;;;;4793664;29;20061;-85
2022/01/17 05:53:17;;;;;;;16.03;3.00;;;5.00;99.90;;;;;;4807629;29;20084;-85
2022/01/17 05:55:42;;;;;;;12.73;2.50;;;4.90;99.90;;;;;;4792522;29;20046;-85
2022/01/17 05:58:08;;;;;;;12.90;2.37;;;5.00;99.90;;;;;;4808709;29;20465;-85
2022/01/17 06:00:34;;;;;;;14.03;2.50;;;5.00;99.90;;;;;;4791508;29;20035;-85
2022/01/17 06:03:00;;;;;;;15.30;2.70;;;5.00;99.90;;;;;;4792399;29;20053;-84
2022/01/17 06:05:25;;;;;;;18.13;3.10;;;5.10;99.90;;;;;;4792249;29;20058;-85
2022/01/17 06:07:51;;;;;;;18.87;3.37;;;5.10;99.90;;;;;;4808111;29;20404;-85
2022/01/17 06:10:16;;;;;;;15.70;2.93;;;5.10;99.90;;;;;;4791954;29;20066;-85
2022/01/17 06:12:42;;;;;;;13.77;3.13;;;5.20;99.90;;;;;;4808467;29;20049;-85
2022/01/17 06:15:08;;;;;;;18.07;3.33;;;5.20;99.90;;;;;;4807543;29;20042;-85
2022/01/17 06:17:34;;;;;;;13.87;2.73;;;5.20;99.90;;;;;;4792540;29;20054;-85
2022/01/17 06:19:59;;;;;;;13.03;2.80;;;5.30;99.90;;;;;;4792138;29;20108;-85
2022/01/17 06:22:26;;;;;;;14.30;3.30;;;5.30;99.90;;;;;;4791158;29;20124;-85
2022/01/17 06:24:51;;;;;;;16.00;3.50;;;5.30;99.90;;;;;;4791676;29;20431;-85
2022/01/17 06:27:17;;;;;;;15.27;3.23;;;5.30;99.90;;;;;;4790934;29;20058;-85
2022/01/17 06:29:43;;;;;;;16.67;3.03;;;5.30;99.90;;;;;;4791475;29;20050;-85
2022/01/17 06:32:09;;;;;;;17.93;3.83;;;5.30;99.90;;;;;;4809787;29;20058;-85
2022/01/17 06:34:34;;;;;;;15.70;3.53;;;5.30;99.90;;;;;;4805791;29;20086;-85
2022/01/17 06:37:00;;;;;;;13.80;3.00;;;5.30;99.90;;;;;;4807971;29;20054;-85
2022/01/17 06:39:25;;;;;;;15.23;3.87;;;5.40;99.90;;;;;;4807746;29;20069;-85
2022/01/17 06:41:51;;;;;;;19.13;3.80;;;5.40;99.90;;;;;;4791246;29;20116;-85
2022/01/17 06:44:17;;;;;;;17.07;3.93;;;5.40;99.90;;;;;;4805917;29;20517;-85
2022/01/17 06:46:43;;;;;;;19.17;3.57;;;5.40;99.90;;;;;;4807895;29;20047;-85
2022/01/17 06:49:09;;;;;;;16.30;3.80;;;5.50;99.90;;;;;;4807350;29;20051;-85
2022/01/17 06:51:35;;;;;;;13.13;3.47;;;5.50;99.90;;;;;;4807152;29;20061;-85
2022/01/17 06:54:01;;;;;;;15.83;4.30;;;5.50;99.90;;;;;;4792043;29;20058;-85
2022/01/17 06:56:27;;;;;;;17.63;4.20;;;5.50;99.90;;;;;;4806703;29;20057;-85
2022/01/17 06:58:53;;;;;;;15.80;3.87;;;5.50;99.90;;;;;;4807574;29;20047;-85
2022/01/17 07:01:20;;;;;;;20.73;4.43;;;5.50;99.90;;;;;;4806111;29;20084;-85
2022/01/17 07:03:47;;;;;;;16.07;4.97;;;5.60;99.90;;;;;;4805913;29;20051;-85
2022/01/17 07:06:13;;;;;;;19.33;4.80;;;5.60;99.90;;;;;;4807529;29;20047;-85
2022/01/17 07:08:38;;;;;;;26.40;8.93;;;5.60;99.90;;;;;;4806554;29;20484;-85
2022/01/17 07:11:05;;;;;;;29.47;11.63;;;5.60;99.90;;;;;;4790033;29;20567;-86
2022/01/17 07:13:31;;;;;;;20.47;6.23;;;5.60;99.90;;;;;;4805471;29;20057;-87
2022/01/17 07:15:57;;;;;;;21.70;7.50;;;5.60;99.90;;;;;;4806566;29;20046;-86
2022/01/17 07:18:22;;;;;;;22.80;7.80;;;5.60;99.90;;;;;;4806234;29;20465;-86
2022/01/17 07:20:48;;;;;;;19.50;5.90;;;5.50;99.90;;;;;;4790844;29;20071;-86
2022/01/17 07:23:14;;;;;;;17.27;5.23;;;5.50;99.90;;;;;;4806901;29;20110;-86
2022/01/17 07:25:40;;;;;;;21.17;6.20;;;5.50;99.90;;;;;;4790853;29;20396;-86
2022/01/17 07:28:10;;;;;;;21.97;7.70;;;5.50;99.90;;;;;;4790833;29;20058;-84
2022/01/17 07:30:37;;;;;;;17.70;5.70;;;5.50;99.90;;;;;;4806136;29;20494;-82
2022/01/17 07:33:04;;;;;;;21.80;6.73;;;5.60;99.90;;;;;;4806906;29;20063;-84
2022/01/17 07:35:30;;;;;;;21.93;5.73;;;5.60;99.90;;;;;;4806688;29;20055;-86
2022/01/17 07:37:56;;;;;;;19.30;5.87;;;5.60;99.90;;;;;;4806502;29;20115;-85
2022/01/17 07:40:22;;;;;;;21.57;6.33;;;5.60;99.90;;;;;;4806755;29;20097;-83
2022/01/17 07:42:47;;;;;;;16.40;5.90;;;5.60;99.90;;;;;;4806820;29;20416;-84
2022/01/17 07:45:15;;;;;;;21.10;6.23;;;5.60;99.90;;;;;;4804746;29;20065;-84
2022/01/17 07:50:18;;;;;;;23.33;6.60;;;4.70;99.90;;;;;;4789532;29;20051;-82
2022/01/17 07:52:44;;;;;;;19.67;5.90;;;5.60;99.90;;;;;;4789320;29;20051;-83
2022/01/17 07:55:11;;;;;;;21.10;7.13;;;5.70;99.90;;;;;;4790178;29;20095;-82
2022/01/17 07:57:38;;;;;;;17.67;5.63;;;5.70;99.90;;;;;;4803495;29;20047;-85
2022/01/17 08:00:09;;;;;;;22.57;5.67;;;6.70;99.90;;;;;;4805393;29;20522;-88
2022/01/17 08:02:35;;;;;;;25.97;6.07;;;5.70;99.90;;;;;;4789392;29;20047;-85
2022/01/17 08:05:01;;;;;;;23.77;5.87;;;5.80;99.90;;;;;;4790898;29;20050;-84
2022/01/17 08:07:27;;;;;;;27.87;7.17;;;5.80;99.90;;;;;;4805388;29;20055;-85
2022/01/17 08:09:53;;;;;;;21.43;5.40;;;5.80;99.90;;;;;;4806298;29;20092;-84
2022/01/17 08:12:18;;;;;;;17.47;4.80;;;5.80;99.90;;;;;;4805800;29;20043;-85
2022/01/17 08:14:44;;;;;;;22.60;5.90;;;5.90;99.90;;;;;;4804319;29;20162;-85
2022/01/17 08:17:11;;;;;;;40.67;18.43;;;5.90;99.90;;;;;;4805406;29;20061;-86
2022/01/17 08:19:36;;;;;;;39.67;18.77;;;5.90;99.90;;;;;;4805937;29;20512;-85
2022/01/17 08:22:05;;;;;;;21.30;5.43;;;6.00;99.90;;;;;;4805297;29;20051;-85
2022/01/17 08:24:31;;;;;;;27.40;8.13;;;6.00;99.90;;;;;;4805847;29;20089;-85
2022/01/17 08:26:57;;;;;;;23.40;5.80;;;6.00;99.90;;;;;;4789197;29;20130;-85
2022/01/17 08:29:25;;;;;;;29.93;9.93;;;6.00;99.90;;;;;;4805669;29;20575;-85
2022/01/17 08:31:51;;;;;;;24.10;5.10;;;6.00;99.90;;;;;;4798957;29;20051;-85
2022/01/17 08:34:17;;;;;;;20.40;5.13;;;6.00;99.90;;;;;;4819370;29;20119;-84
2022/01/17 08:36:44;;;;;;;19.50;4.80;;;6.00;99.90;;;;;;4824283;29;20414;-87
2022/01/17 08:39:10;;;;;;;24.80;4.97;;;6.00;99.90;;;;;;4807757;29;20046;-87
2022/01/17 08:41:37;;;;;;;17.13;4.80;;;6.00;99.90;;;;;;4806817;29;20061;-85
2022/01/17 08:44:03;;;;;;;22.77;5.43;;;6.00;99.90;;;;;;4790969;29;20047;-86
2022/01/17 08:46:29;;;;;;;26.60;5.27;;;6.00;99.90;;;;;;4805415;29;20054;-85
2022/01/17 08:48:54;;;;;;;25.00;6.53;;;6.00;99.90;;;;;;4804716;29;20055;-85
2022/01/17 08:51:20;;;;;;;25.13;6.80;;;6.00;99.90;;;;;;4805492;29;20038;-86
2022/01/17 08:53:46;;;;;;;24.90;5.57;;;6.10;99.90;;;;;;4789507;29;20141;-86
2022/01/17 08:56:12;;;;;;;24.17;6.33;;;6.10;99.90;;;;;;4788766;29;20055;-85
2022/01/17 08:58:37;;;;;;;25.50;5.50;;;6.70;99.90;;;;;;4789445;29;20042;-85
2022/01/17 09:01:03;;;;;;;27.83;5.47;;;6.10;99.90;;;;;;4789763;29;20488;-86
2022/01/17 09:03:29;;;;;;;17.37;4.87;;;6.10;99.90;;;;;;4788022;29;20054;-85
2022/01/17 09:05:55;;;;;;;38.03;19.27;;;6.10;99.90;;;;;;4788859;29;20050;-85
2022/01/17 09:08:24;;;;;;;28.63;5.80;;;6.10;99.90;;;;;;4805128;29;20054;-85
2022/01/17 09:10:54;;;;;;;36.37;16.63;;;6.20;99.90;;;;;;4788660;29;20099;-85
2022/01/17 09:13:20;;;;;;;27.47;7.20;;;6.20;99.90;;;;;;4788883;29;20055;-87
2022/01/17 09:15:45;;;;;;;20.80;4.90;;;6.20;99.90;;;;;;4805512;29;20099;-86
2022/01/17 09:18:14;;;;;;;28.00;5.23;;;6.20;99.90;;;;;;4804821;29;20054;-85
2022/01/17 09:20:40;;;;;;;24.73;5.40;;;6.20;99.90;;;;;;4804470;29;20134;-86
2022/01/17 09:23:07;;;;;;;22.87;4.53;;;6.30;99.90;;;;;;4788319;29;20063;-86
2022/01/17 09:25:33;;;;;;;23.20;5.57;;;6.30;99.90;;;;;;4788979;29;20840;-86
2022/01/17 09:27:58;;;;;;;25.23;4.90;;;6.30;99.90;;;;;;4805189;29;20101;-83
2022/01/17 09:30:24;;;;;;;24.23;4.80;;;6.30;99.90;;;;;;4804201;29;20150;-86
2022/01/17 09:32:49;;;;;;;22.03;4.50;;;6.30;99.90;;;;;;4817030;29;20060;-86
2022/01/17 09:35:15;;;;;;;24.53;5.03;;;6.40;99.90;;;;;;4821939;29;20495;-85
2022/01/17 09:37:42;;;;;;;20.10;4.27;;;6.40;99.90;;;;;;4823064;29;20058;-85
2022/01/17 09:40:09;;;;;;;22.70;4.60;;;6.40;99.90;;;;;;4823733;29;20038;-85
2022/01/17 09:42:36;;;;;;;37.20;8.90;;;6.40;99.90;;;;;;4822029;29;20050;-85
2022/01/17 09:45:14;;;;;;;23.40;4.60;;;6.40;99.90;;;;;;4821543;29;20047;-85
2022/01/17 09:47:41;;;;;;;24.57;5.30;;;6.50;99.90;;;;;;4822029;29;20057;-85
2022/01/17 09:50:11;;;;;;;30.33;5.03;;;6.50;99.90;;;;;;4822345;29;20503;-86
2022/01/17 09:52:46;;;;;;;23.27;4.63;;;6.60;99.90;;;;;;4821575;29;20376;-86
2022/01/17 09:55:15;;;;;;;27.67;5.30;;;6.60;99.90;;;;;;4823139;29;20050;-86
2022/01/17 09:57:48;;;;;;;26.47;4.50;;;6.60;99.90;;;;;;4822158;29;20042;-86
2022/01/17 10:00:16;;;;;;;22.37;4.20;;;6.70;99.90;;;;;;4805567;29;20499;-86
2022/01/17 10:02:42;;;;;;;20.33;4.10;;;6.80;99.90;;;;;;4821900;29;20062;-86
2022/01/17 10:05:08;;;;;;;23.20;4.60;;;6.80;99.90;;;;;;4822870;29;20058;-86
2022/01/17 10:07:53;;;;;;;22.60;4.60;;;6.90;99.90;;;;;;4821684;29;20053;-86
2022/01/17 10:10:44;;;;;;;18.93;4.20;;;7.00;99.90;;;;;;4821886;29;20054;-86
2022/01/17 10:13:27;;;;;;;28.90;4.93;;;7.10;99.90;;;;;;4821425;29;20412;-86
2022/01/17 10:16:04;;;;;;;28.70;4.90;;;7.10;99.90;;;;;;4822069;29;20054;-85
2022/01/17 10:18:39;;;;;;;28.93;5.00;;;7.10;99.90;;;;;;4822835;29;20054;-86
2022/01/17 10:21:12;;;;;;;29.63;6.10;;;7.20;99.90;;;;;;4821234;29;20059;-85
2022/01/17 10:24:01;;;;;;;22.45;4.10;;;7.30;99.90;;;;;;4821005;29;20133;-88
2022/01/17 10:26:57;;;;;;;27.03;6.53;;;7.30;99.90;;;;;;4819726;29;20042;-87
2022/01/17 10:34:54;;;;;;;24.67;4.70;;;7.60;99.90;;;;;;4824186;29;20054;-87
2022/01/17 10:37:22;;;;;;;23.27;5.13;;;7.70;99.90;;;;;;4824377;29;20062;-88
2022/01/17 10:40:08;;;;;;;29.80;4.43;;;7.80;99.90;;;;;;4824796;29;20064;-87
2022/01/17 10:42:41;;;;;;;26.17;4.20;;;7.90;99.90;;;;;;4825200;29;20616;-88
2022/01/17 10:45:18;;;;;;;20.90;4.40;;;8.00;99.90;;;;;;4828423;29;20054;-90
2022/01/17 10:47:46;;;;;;;22.30;4.60;;;8.10;99.90;;;;;;4826672;29;20480;-87
2022/01/17 10:50:20;;;;;;;24.53;4.83;;;8.20;99.90;;;;;;4824660;29;20062;-86
2022/01/17 10:52:48;;;;;;;25.17;4.65;;;8.40;99.90;;;;;;4824852;29;20050;-87
2022/01/17 10:55:18;;;;;;;28.73;4.77;;;8.40;99.90;;;;;;4823502;29;20532;-87
2022/01/17 10:57:47;;;;;;;25.73;5.00;;;8.50;99.90;;;;;;4824834;29;20077;-87
2022/01/17 11:00:19;;;;;;;22.43;4.43;;;8.60;99.90;;;;;;4824160;29;20403;-87
2022/01/17 11:02:52;;;;;;;22.47;4.23;;;8.70;99.90;;;;;;4823502;29;20414;-88
2022/01/17 11:05:19;;;;;;;21.33;4.13;;;9.10;99.90;;;;;;4824242;29;20229;-87
2022/01/17 11:07:47;;;;;;;24.87;4.67;;;9.00;99.90;;;;;;4809435;29;20051;-87
2022/01/17 11:10:22;;;;;;;29.03;4.57;;;9.00;99.90;;;;;;4820141;29;20061;-86
2022/01/17 11:12:50;;;;;;;26.20;4.47;;;9.00;99.90;;;;;;4821087;29;20063;-87
2022/01/17 11:15:16;;;;;;;28.57;4.93;;;9.00;99.90;;;;;;4822939;29;20072;-87
2022/01/17 11:17:57;;;;;;;24.27;5.23;;;9.10;99.90;;;;;;4823523;29;20054;-86
2022/01/17 11:20:26;;;;;;;30.23;5.67;;;9.10;99.90;;;;;;4824201;29;20050;-89
2022/01/17 11:22:55;;;;;;;30.37;5.40;;;9.00;99.90;;;;;;4823303;29;20507;-88
2022/01/17 11:25:31;;;;;;;28.73;5.40;;;9.10;99.90;;;;;;4824262;29;20050;-88
2022/01/17 11:27:57;;;;;;;26.73;5.33;;;9.00;99.90;;;;;;4823850;29;20474;-86
2022/01/17 11:30:24;;;;;;;29.30;5.47;;;9.00;99.90;;;;;;4819671;29;20055;-88
2022/01/17 11:32:51;;;;;;;32.37;5.57;;;9.00;99.90;;;;;;4806469;29;20416;-88
2022/01/17 11:35:28;;;;;;;25.13;5.10;;;10.00;99.90;;;;;;4806589;29;20060;-87
2022/01/17 11:37:58;;;;;;;27.30;5.37;;;10.70;99.90;;;;;;4803979;29;20047;-90
2022/01/17 11:40:29;;;;;;;27.03;4.87;;;8.90;99.90;;;;;;4805730;29;20047;-88
2022/01/17 11:42:55;;;;;;;29.77;4.97;;;9.00;99.90;;;;;;4804997;29;20061;-87
2022/01/17 11:45:24;;;;;;;28.37;4.67;;;8.90;99.90;;;;;;4804526;29;20482;-87
2022/01/17 11:48:20;;;;;;;30.80;5.80;;;9.00;99.90;;;;;;4805767;29;20508;-87
2022/01/17 11:50:48;;;;;;;24.93;4.83;;;9.10;99.90;;;;;;4800056;29;20059;-87
2022/01/17 11:53:14;;;;;;;26.27;5.17;;;9.10;99.90;;;;;;4820402;29;20089;-87
2022/01/17 11:55:42;;;;;;;22.00;4.40;;;9.10;99.90;;;;;;4807042;29;20484;-87
2022/01/17 11:58:50;;;;;;;21.97;5.27;;;9.20;99.90;;;;;;4805349;29;20138;-87
2022/01/17 12:01:20;;;;;;;24.40;5.27;;;9.10;99.90;;;;;;4804832;29;20096;-87
2022/01/17 12:03:52;;;;;;;31.67;6.73;;;9.10;99.90;;;;;;4805239;29;20050;-87
2022/01/17 12:06:22;;;;;;;27.60;5.10;;;9.10;99.90;;;;;;4804551;29;20042;-87
2022/01/17 12:08:49;;;;;;;22.00;4.10;;;9.10;99.90;;;;;;4805418;29;20059;-87
2022/01/17 12:11:31;;;;;;;28.10;5.40;;;9.00;99.90;;;;;;4805213;29;20491;-87
2022/01/17 12:14:25;;;;;;;23.07;4.87;;;9.30;99.90;;;;;;4804853;29;20123;-87
2022/01/17 12:17:25;;;;;;;24.90;4.90;;;9.00;99.90;;;;;;4805405;29;20062;-87
2022/01/17 12:20:03;;;;;;;25.97;5.57;;;9.00;99.90;;;;;;4801236;29;20077;-87
2022/01/17 12:22:58;;;;;;;24.40;5.33;;;9.00;99.90;;;;;;4804960;29;20066;-87
2022/01/17 12:25:30;;;;;;;24.23;4.57;;;9.10;99.90;;;;;;4800382;29;20058;-87
2022/01/17 12:28:08;;;;;;;28.90;5.10;;;9.00;99.90;;;;;;4814430;29;20503;-87
2022/01/17 12:30:41;;;;;;;25.37;5.47;;;10.00;99.90;;;;;;4804913;29;20046;-88
2022/01/17 12:33:11;;;;;;;28.90;5.33;;;10.00;99.90;;;;;;4804024;29;20067;-87
2022/01/17 12:35:46;;;;;;;22.47;5.47;;;9.10;99.90;;;;;;4820054;29;20444;-87
2022/01/17 12:38:41;;;;;;;25.10;4.60;;;9.40;99.90;;;;;;4804426;29;20411;-87
2022/01/17 12:41:32;;;;;;;27.93;5.80;;;9.20;99.90;;;;;;4819225;29;20072;-87
2022/01/17 12:43:58;;;;;;;32.13;5.27;;;9.30;99.90;;;;;;4804540;29;20070;-87
2022/01/17 12:46:25;;;;;;;21.90;4.50;;;9.30;99.90;;;;;;4804644;29;20135;-87
2022/01/17 12:48:52;;;;;;;28.90;5.13;;;9.30;99.90;;;;;;4803443;29;20063;-87
2022/01/17 12:51:18;;;;;;;20.63;3.90;;;9.30;99.90;;;;;;4804667;29;20115;-87
2022/01/17 12:53:51;;;;;;;18.23;4.50;;;9.30;99.90;;;;;;4804638;29;20054;-87
2022/01/17 12:56:17;;;;;;;23.63;4.50;;;9.40;99.90;;;;;;4804756;29;20082;-87
2022/01/17 12:58:43;;;;;;;23.17;3.70;;;9.40;99.90;;;;;;4804721;29;20508;-87
2022/01/17 13:01:15;;;;;;;23.97;4.17;;;9.30;99.90;;;;;;4819030;29;20164;-87
2022/01/17 13:03:43;;;;;;;20.10;4.13;;;9.30;99.90;;;;;;4804172;29;20099;-87
2022/01/17 13:06:17;;;;;;;19.43;4.50;;;9.30;99.90;;;;;;4804803;29;20218;-87
2022/01/17 13:08:49;;;;;;;22.63;4.10;;;9.20;99.90;;;;;;4819290;29;20058;-87
2022/01/17 13:11:24;;;;;;;19.00;3.77;;;9.30;99.90;;;;;;4804246;29;20055;-88
2022/01/17 13:14:01;;;;;;;25.27;4.63;;;9.20;99.90;;;;;;4804444;29;20038;-89
2022/01/17 13:16:30;;;;;;;22.97;4.20;;;9.10;99.90;;;;;;4819108;29;20046;-88
2022/01/17 13:18:58;;;;;;;22.97;4.17;;;9.20;99.90;;;;;;4804590;29;20042;-89
2022/01/17 13:21:25;;;;;;;25.77;4.03;;;9.20;99.90;;;;;;4804788;29;20038;-89